createdAt,value
2023-05-15T00:00:54.723Z,8.91
2023-05-15T00:03:21.633Z,8.72
2023-05-15T00:05:48.497Z,8.38
2023-05-15T00:08:15.179Z,8.39
2023-05-15T00:10:45.019Z,8.38
2023-05-15T00:13:20.648Z,8.46
2023-05-15T00:15:48.072Z,8.46
2023-05-15T00:18:16.323Z,8.55
2023-05-15T00:20:43.031Z,8.57
2023-05-15T00:23:17.703Z,8.44
2023-05-15T00:25:44.294Z,8.36
2023-05-15T00:28:10.913Z,8.23
2023-05-15T00:30:37.505Z,8.29
2023-05-15T00:33:07.620Z,8.28
2023-05-15T00:35:35.077Z,8.33
2023-05-15T00:38:02.014Z,8.38
2023-05-15T00:40:28.850Z,8.42
2023-05-15T00:42:55.668Z,8.27
2023-05-15T00:45:23.720Z,8.25
2023-05-15T00:47:51.453Z,8.35
2023-05-15T00:50:18.352Z,8.37
2023-05-15T00:52:45.173Z,8.41
2023-05-15T00:55:11.683Z,8.50
2023-05-15T00:57:38.622Z,8.49
2023-05-15T01:00:05.854Z,8.52
2023-05-15T01:02:32.652Z,8.56
2023-05-15T01:04:59.512Z,8.61
2023-05-15T01:07:26.158Z,8.51
2023-05-15T01:09:53.772Z,8.34
2023-05-15T01:12:21.803Z,8.15
2023-05-15T01:14:49.457Z,8.16
2023-05-15T01:17:16.128Z,8.29
2023-05-15T01:19:43.518Z,8.37
2023-05-15T01:22:25.678Z,8.38
2023-05-15T01:25:14.890Z,8.26
2023-05-15T01:27:59.638Z,8.30
2023-05-15T01:30:31.388Z,8.26
2023-05-15T01:33:17.216Z,7.99
2023-05-15T01:35:55.258Z,8.03
2023-05-15T01:38:37.308Z,8.05
2023-05-15T01:41:37.257Z,8.01
2023-05-15T01:44:21.717Z,7.89
2023-05-15T01:46:50.872Z,7.87
2023-05-15T01:49:19.844Z,7.83
2023-05-15T01:51:49.303Z,7.61
2023-05-15T01:54:18.780Z,7.70
2023-05-15T01:56:46.086Z,7.76
2023-05-15T01:59:13.876Z,7.81
2023-05-15T02:01:42.309Z,7.71
2023-05-15T02:04:09.881Z,7.66
2023-05-15T02:06:37.033Z,7.58
2023-05-15T02:09:03.875Z,7.62
2023-05-15T02:11:30.654Z,7.65
2023-05-15T02:13:57.978Z,7.62
2023-05-15T02:16:25.136Z,7.65
2023-05-15T02:18:51.924Z,7.54
2023-05-15T02:21:18.644Z,7.53
2023-05-15T02:23:45.284Z,7.52
2023-05-15T02:26:27.435Z,7.57
2023-05-15T02:29:11.584Z,7.35
2023-05-15T02:31:45.491Z,7.40
2023-05-15T02:34:27.081Z,7.30
2023-05-15T02:36:54.752Z,7.14
2023-05-15T02:39:22.074Z,7.12
2023-05-15T02:41:48.981Z,7.15
2023-05-15T02:44:16.189Z,7.29
2023-05-15T02:46:43.368Z,7.35
2023-05-15T02:49:11.693Z,7.60
2023-05-15T02:51:38.393Z,7.94
2023-05-15T02:54:05.339Z,8.01
2023-05-15T02:56:36.890Z,8.14
2023-05-15T02:59:03.913Z,8.06
2023-05-15T03:01:31.710Z,8.09
2023-05-15T03:03:58.474Z,8.03
2023-05-15T03:06:26.927Z,8.07
2023-05-15T03:08:53.590Z,8.07
2023-05-15T03:11:47.090Z,8.05
2023-05-15T03:14:14.839Z,8.09
2023-05-15T03:16:43.674Z,8.13
2023-05-15T03:19:10.532Z,8.01
2023-05-15T03:21:37.401Z,8.03
2023-05-15T03:24:04.150Z,8.12
2023-05-15T03:26:32.808Z,8.13
2023-05-15T03:29:01.543Z,8.17
2023-05-15T03:31:28.324Z,7.69
2023-05-15T03:33:55.346Z,7.94
2023-05-15T03:36:22.028Z,8.05
2023-05-15T03:38:48.680Z,8.20
2023-05-15T03:41:19.458Z,8.24
2023-05-15T03:43:46.236Z,8.18
2023-05-15T03:46:13.093Z,7.95
2023-05-15T03:48:39.860Z,7.73
2023-05-15T03:51:06.582Z,8.05
2023-05-15T03:53:33.105Z,8.26
2023-05-15T03:55:59.809Z,8.12
2023-05-15T03:58:26.464Z,8.18
2023-05-15T04:00:53.188Z,8.37
2023-05-15T04:03:19.676Z,8.29
2023-05-15T04:05:46.159Z,8.24
2023-05-15T04:08:12.608Z,8.52
2023-05-15T04:10:39.016Z,8.53
2023-05-15T04:13:05.356Z,8.54
2023-05-15T04:15:31.694Z,8.56
2023-05-15T04:17:58.060Z,8.71
2023-05-15T04:20:25.055Z,8.58
2023-05-15T04:22:52.588Z,8.68
2023-05-15T04:25:19.321Z,8.52
2023-05-15T04:27:46.047Z,8.72
2023-05-15T04:30:13.116Z,8.67
2023-05-15T04:32:40.159Z,8.64
2023-05-15T04:35:07.648Z,8.73
2023-05-15T04:37:34.068Z,8.74
2023-05-15T04:40:00.398Z,8.82
2023-05-15T04:42:26.720Z,8.78
2023-05-15T04:44:53.579Z,8.80
2023-05-15T04:47:19.980Z,8.81
2023-05-15T04:49:46.368Z,8.64
2023-05-15T04:52:12.740Z,8.62
2023-05-15T04:54:39.089Z,8.82
2023-05-15T04:57:05.426Z,8.71
2023-05-15T04:59:31.900Z,8.73
2023-05-15T05:01:58.412Z,8.74
2023-05-15T05:04:24.808Z,8.69
2023-05-15T05:06:51.134Z,8.72
2023-05-15T05:09:19.215Z,8.79
2023-05-15T05:11:46.285Z,8.73
2023-05-15T05:14:13.705Z,8.88
2023-05-15T05:16:40.055Z,9.01
2023-05-15T05:19:06.632Z,9.02
2023-05-15T05:21:33.561Z,8.98
2023-05-15T05:23:59.909Z,9.12
2023-05-15T05:26:26.568Z,9.32
2023-05-15T05:28:53.203Z,9.30
2023-05-15T05:31:20.572Z,9.66
2023-05-15T05:33:46.939Z,9.69
2023-05-15T05:36:13.262Z,9.88
2023-05-15T05:38:39.634Z,10.12
2023-05-15T05:41:05.986Z,10.12
2023-05-15T05:43:32.369Z,10.30
2023-05-15T05:45:58.883Z,10.31
2023-05-15T05:48:25.260Z,10.52
2023-05-15T05:50:51.596Z,10.39
2023-05-15T05:53:17.934Z,10.44
2023-05-15T05:55:44.410Z,10.46
2023-05-15T05:58:18.292Z,10.58
2023-05-15T06:00:51.624Z,10.57
2023-05-15T06:03:19.169Z,10.69
2023-05-15T06:05:45.526Z,10.69
2023-05-15T06:08:11.915Z,10.86
2023-05-15T06:10:38.243Z,10.80
2023-05-15T06:13:04.608Z,10.85
2023-05-15T06:15:30.924Z,10.85
2023-05-15T06:17:57.289Z,10.98
2023-05-15T06:20:23.744Z,11.00
2023-05-15T06:22:50.195Z,11.02
2023-05-15T06:25:16.525Z,11.24
2023-05-15T06:27:42.851Z,11.25
2023-05-15T06:30:09.928Z,11.23
2023-05-15T06:32:36.308Z,11.26
2023-05-15T06:35:03.118Z,11.33
2023-05-15T06:37:30.188Z,11.45
2023-05-15T06:39:56.520Z,11.35
2023-05-15T06:42:23.285Z,11.54
2023-05-15T06:44:49.626Z,11.63
2023-05-15T06:47:16.306Z,11.80
2023-05-15T06:49:42.687Z,11.84
2023-05-15T06:52:09.067Z,11.80
2023-05-15T06:54:35.416Z,11.70
2023-05-15T06:57:01.788Z,11.75
2023-05-15T06:59:28.123Z,11.80
2023-05-15T07:01:54.513Z,11.94
2023-05-15T07:04:20.881Z,11.88
2023-05-15T07:06:47.227Z,11.87
2023-05-15T07:09:13.553Z,11.80
2023-05-15T07:11:39.889Z,11.98
2023-05-15T07:14:06.502Z,12.08
2023-05-15T07:16:32.841Z,12.36
2023-05-15T07:19:00.858Z,12.50
2023-05-15T07:21:27.212Z,12.53
2023-05-15T07:23:53.556Z,12.97
2023-05-15T07:26:27.903Z,12.89
2023-05-15T07:28:59.040Z,13.31
2023-05-15T07:31:25.514Z,13.22
2023-05-15T07:33:51.879Z,13.37
2023-05-15T07:36:18.235Z,13.44
2023-05-15T07:38:44.597Z,13.51
2023-05-15T07:41:10.933Z,13.60
2023-05-15T07:43:37.318Z,13.53
2023-05-15T07:46:03.652Z,13.69
2023-05-15T07:48:30.023Z,13.81
2023-05-15T07:50:56.338Z,13.99
2023-05-15T07:53:22.668Z,13.93
2023-05-15T07:55:49.005Z,13.92
2023-05-15T07:58:15.351Z,14.00
2023-05-15T08:00:41.918Z,14.16
2023-05-15T08:03:08.627Z,14.16
2023-05-15T08:05:35.141Z,14.29
2023-05-15T08:08:01.509Z,14.23
2023-05-15T08:10:27.834Z,14.65
2023-05-15T08:12:54.177Z,14.83
2023-05-15T08:15:20.655Z,14.80
2023-05-15T08:17:47.076Z,14.89
2023-05-15T08:20:13.872Z,14.96
2023-05-15T08:22:40.212Z,15.01
2023-05-15T08:25:07.081Z,14.96
2023-05-15T08:27:33.481Z,14.89
2023-05-15T08:29:59.815Z,15.13
2023-05-15T08:32:26.164Z,15.42
2023-05-15T08:34:52.710Z,15.33
2023-05-15T08:37:19.036Z,15.24
2023-05-15T08:39:45.380Z,15.37
2023-05-15T08:42:21.983Z,15.38
2023-05-15T08:44:48.331Z,15.26
2023-05-15T08:47:15.128Z,15.64
2023-05-15T08:50:04.818Z,15.72
2023-05-15T08:52:32.729Z,15.97
2023-05-15T08:54:59.990Z,15.85
2023-05-15T08:57:27.153Z,15.74
2023-05-15T08:59:54.150Z,15.81
2023-05-15T09:02:20.992Z,15.68
2023-05-15T09:04:47.571Z,15.58
2023-05-15T09:07:15.434Z,15.79
2023-05-15T09:09:42.786Z,16.22
2023-05-15T09:12:11.352Z,16.55
2023-05-15T09:14:37.680Z,16.44
2023-05-15T09:17:04.157Z,16.08
2023-05-15T09:19:31.523Z,16.00
2023-05-15T09:22:13.975Z,15.93
2023-05-15T09:24:40.298Z,15.65
2023-05-15T09:27:07.997Z,15.64
2023-05-15T09:29:36.064Z,15.59
2023-05-15T09:32:15.082Z,15.67
2023-05-15T09:34:43.124Z,15.71
2023-05-15T09:37:10.836Z,15.94
2023-05-15T09:39:43.605Z,15.84
2023-05-15T09:42:11.569Z,15.77
2023-05-15T09:44:45.062Z,15.68
2023-05-15T09:47:13.452Z,15.65
2023-05-15T09:49:40.137Z,15.48
2023-05-15T09:52:09.496Z,15.49
2023-05-15T09:54:36.906Z,15.48
2023-05-15T09:57:11.201Z,15.53
2023-05-15T09:59:47.933Z,15.61
2023-05-15T10:02:23.064Z,15.66
2023-05-15T10:04:55.890Z,15.73
2023-05-15T10:07:33.166Z,15.71
2023-05-15T10:10:00.476Z,15.85
2023-05-15T10:12:28.423Z,15.94
2023-05-15T10:14:59.201Z,16.04
2023-05-15T10:17:26.574Z,15.96
2023-05-15T10:19:58.229Z,16.13
2023-05-15T10:22:29.271Z,16.32
2023-05-15T10:25:17.495Z,16.54
2023-05-15T10:27:43.830Z,16.64
2023-05-15T10:30:10.645Z,16.56
2023-05-15T10:32:37.396Z,16.61
2023-05-15T10:35:04.366Z,16.72
2023-05-15T10:37:30.782Z,16.89
2023-05-15T10:39:57.682Z,16.80
2023-05-15T10:42:26.116Z,16.86
2023-05-15T10:44:53.409Z,16.83
2023-05-15T10:47:20.481Z,16.80
2023-05-15T10:49:46.850Z,17.12
2023-05-15T10:52:13.239Z,17.15
2023-05-15T10:54:39.727Z,17.19
2023-05-15T10:57:06.075Z,17.23
2023-05-15T10:59:33.433Z,17.67
2023-05-15T11:02:26.042Z,17.51
2023-05-15T11:04:59.929Z,17.64
2023-05-15T11:07:26.958Z,17.13
2023-05-15T11:09:54.455Z,17.18
2023-05-15T11:12:21.057Z,17.84
2023-05-15T11:14:56.548Z,17.68
2023-05-15T11:17:23.886Z,17.57
2023-05-15T11:19:50.127Z,17.61
2023-05-15T11:22:26.673Z,18.07
2023-05-15T11:25:10.288Z,17.67
2023-05-15T11:27:42.011Z,17.18
2023-05-15T11:30:15.576Z,17.02
2023-05-15T11:32:49.208Z,16.83
2023-05-15T11:35:30.061Z,16.71
2023-05-15T11:38:02.594Z,16.65
2023-05-15T11:40:32.961Z,16.65
2023-05-15T11:43:25.704Z,16.54
2023-05-15T11:45:52.937Z,16.48
2023-05-15T11:48:19.539Z,16.30
2023-05-15T11:50:45.929Z,15.87
2023-05-15T11:53:12.510Z,15.76
2023-05-15T11:55:40.850Z,15.51
2023-05-15T11:58:15.732Z,15.26
2023-05-15T12:00:43.121Z,15.14
2023-05-15T12:03:22.156Z,14.60
2023-05-15T12:05:58.241Z,14.01
2023-05-15T12:08:25.661Z,13.83
2023-05-15T12:10:52.054Z,13.98
2023-05-15T12:13:18.530Z,14.37
2023-05-15T12:15:46.101Z,14.44
2023-05-15T12:18:13.596Z,14.60
2023-05-15T12:20:41.191Z,14.42
2023-05-15T12:23:08.309Z,14.43
2023-05-15T12:25:36.213Z,14.50
2023-05-15T12:28:04.791Z,14.80
2023-05-15T12:30:32.117Z,14.94
2023-05-15T12:33:04.358Z,15.00
2023-05-15T12:35:33.074Z,14.89
2023-05-15T12:37:59.417Z,15.04
2023-05-15T12:40:25.970Z,15.18
2023-05-15T12:42:53.818Z,15.27
2023-05-15T12:45:21.278Z,15.37
2023-05-15T12:47:50.344Z,15.40
2023-05-15T12:50:21.348Z,15.51
2023-05-15T12:52:54.596Z,15.64
2023-05-15T12:55:25.515Z,15.87
2023-05-15T12:57:53.374Z,15.97
2023-05-15T13:00:21.523Z,16.02
2023-05-15T13:02:55.192Z,16.11
2023-05-15T13:05:29.323Z,16.31
2023-05-15T13:07:58.336Z,16.55
2023-05-15T13:10:25.632Z,16.72
2023-05-15T13:12:53.298Z,17.13
2023-05-15T13:15:25.557Z,17.46
2023-05-15T13:17:53.327Z,17.42
2023-05-15T13:20:19.718Z,18.17
2023-05-15T13:22:46.098Z,17.87
2023-05-15T13:25:17.719Z,17.38
2023-05-15T13:27:45.294Z,17.11
2023-05-15T13:30:12.369Z,16.87
2023-05-15T13:32:39.806Z,16.80
2023-05-15T13:35:06.660Z,16.80
2023-05-15T13:37:34.450Z,16.70
2023-05-15T13:40:01.987Z,16.65
2023-05-15T13:42:28.389Z,16.67
2023-05-15T13:44:54.764Z,16.72
2023-05-15T13:47:21.108Z,16.75
2023-05-15T13:49:47.457Z,16.67
2023-05-15T13:52:14.106Z,16.88
2023-05-15T13:54:40.438Z,16.98
2023-05-15T13:57:07.320Z,17.04
2023-05-15T13:59:33.672Z,17.22
2023-05-15T14:01:59.992Z,17.23
2023-05-15T14:04:26.485Z,17.22
2023-05-15T14:06:52.845Z,17.22
2023-05-15T14:09:19.256Z,17.28
2023-05-15T14:11:45.585Z,17.24
2023-05-15T14:14:11.930Z,17.55
2023-05-15T14:16:38.308Z,17.75
2023-05-15T14:19:04.744Z,17.81
2023-05-15T14:21:31.140Z,18.35
2023-05-15T14:23:58.553Z,18.52
2023-05-15T14:26:24.896Z,18.61
2023-05-15T14:28:51.228Z,18.93
2023-05-15T14:31:17.605Z,18.70
2023-05-15T14:33:43.952Z,18.63
2023-05-15T14:36:10.275Z,18.50
2023-05-15T14:38:37.542Z,18.77
2023-05-15T14:41:03.911Z,18.97
2023-05-15T14:43:30.278Z,19.02
2023-05-15T14:45:56.673Z,18.79
2023-05-15T14:48:23.086Z,18.95
2023-05-15T14:50:49.422Z,18.91
2023-05-15T14:53:15.774Z,19.08
2023-05-15T14:55:42.080Z,18.54
2023-05-15T14:58:08.407Z,18.20
2023-05-15T15:00:34.928Z,17.83
2023-05-15T15:03:01.371Z,17.53
2023-05-15T15:05:27.781Z,17.21
2023-05-15T15:08:03.088Z,16.90
2023-05-15T15:10:30.693Z,16.51
2023-05-15T15:12:57.247Z,16.31
2023-05-15T15:15:23.809Z,15.92
2023-05-15T15:17:50.614Z,15.34
2023-05-15T15:20:20.003Z,15.57
2023-05-15T15:22:46.720Z,15.59
2023-05-15T15:25:13.573Z,15.27
2023-05-15T15:27:40.186Z,15.63
2023-05-15T15:30:07.862Z,15.87
2023-05-15T15:32:36.329Z,15.96
2023-05-15T15:35:02.822Z,15.98
2023-05-15T15:37:33.300Z,15.78
2023-05-15T15:40:00.648Z,15.86
2023-05-15T15:42:28.569Z,15.73
2023-05-15T15:44:55.507Z,15.82
2023-05-15T15:47:22.460Z,15.82
2023-05-15T15:49:50.474Z,16.00
2023-05-15T15:52:17.358Z,16.02
2023-05-15T15:54:43.696Z,16.00
2023-05-15T15:57:10.037Z,16.01
2023-05-15T15:59:36.387Z,16.09
2023-05-15T16:02:04.943Z,16.01
2023-05-15T16:04:31.347Z,16.21
2023-05-15T16:06:57.920Z,16.15
2023-05-15T16:09:24.276Z,16.33
2023-05-15T16:11:50.644Z,16.41
2023-05-15T16:14:20.931Z,16.56
2023-05-15T16:16:47.308Z,16.85
2023-05-15T16:19:13.839Z,16.92
2023-05-15T16:21:40.207Z,17.00
2023-05-15T16:24:06.772Z,17.12
2023-05-15T16:26:33.150Z,17.20
2023-05-15T16:28:59.484Z,17.11
2023-05-15T16:31:25.827Z,17.03
2023-05-15T16:33:52.204Z,16.89
2023-05-15T16:36:18.575Z,17.01
2023-05-15T16:38:44.934Z,16.85
2023-05-15T16:41:11.263Z,16.78
2023-05-15T16:43:37.652Z,16.76
2023-05-15T16:46:04.589Z,16.67
2023-05-15T16:48:30.952Z,16.66
2023-05-15T16:50:57.359Z,16.62
2023-05-15T16:53:23.725Z,16.52
2023-05-15T16:55:50.083Z,16.46
2023-05-15T16:58:16.446Z,16.37
2023-05-15T17:00:42.801Z,16.23
2023-05-15T17:03:09.303Z,16.25
2023-05-15T17:05:35.718Z,16.20
2023-05-15T17:08:02.096Z,16.11
2023-05-15T17:10:28.506Z,15.89
2023-05-15T17:12:54.856Z,15.70
2023-05-15T17:15:21.183Z,15.60
2023-05-15T17:17:47.541Z,15.57
2023-05-15T17:20:13.888Z,15.56
2023-05-15T17:22:40.229Z,15.38
2023-05-15T17:25:06.808Z,15.24
2023-05-15T17:27:33.131Z,14.84
2023-05-15T17:29:59.891Z,14.75
2023-05-15T17:32:26.982Z,14.60
2023-05-15T17:34:53.704Z,14.61
2023-05-15T17:37:20.701Z,14.32
2023-05-15T17:39:47.334Z,14.32
2023-05-15T17:42:14.237Z,14.29
2023-05-15T17:44:41.085Z,14.18
2023-05-15T17:47:08.029Z,14.13
2023-05-15T17:49:34.905Z,14.27
2023-05-15T17:52:01.642Z,14.33
2023-05-15T17:54:28.276Z,14.35
2023-05-15T17:56:55.330Z,14.22
2023-05-15T17:59:27.794Z,14.36
2023-05-15T18:01:54.587Z,14.24
2023-05-15T18:04:21.488Z,14.24
2023-05-15T18:06:48.322Z,14.20
2023-05-15T18:09:15.063Z,14.18
2023-05-15T18:11:41.755Z,14.21
2023-05-15T18:14:12.421Z,14.29
2023-05-15T18:16:39.997Z,14.21
2023-05-15T18:19:06.881Z,14.10
2023-05-15T18:21:35.604Z,14.05
2023-05-15T18:24:03.733Z,13.89
2023-05-15T18:26:31.285Z,13.92
2023-05-15T18:29:06.286Z,13.83
2023-05-15T18:31:33.114Z,13.77
2023-05-15T18:34:01.105Z,13.71
2023-05-15T18:36:28.853Z,13.72
2023-05-15T18:38:55.496Z,13.68
2023-05-15T18:41:22.244Z,13.67
2023-05-15T18:43:48.839Z,13.60
2023-05-15T18:46:15.549Z,13.65
2023-05-15T18:48:43.523Z,13.50
2023-05-15T18:51:12.558Z,13.55
2023-05-15T18:53:40.184Z,13.56
2023-05-15T18:56:10.772Z,13.48
2023-05-15T18:58:37.553Z,13.42
2023-05-15T19:01:04.273Z,13.41
2023-05-15T19:03:40.180Z,13.32
2023-05-15T19:06:06.898Z,13.24
2023-05-15T19:08:33.771Z,13.17
2023-05-15T19:11:01.581Z,13.14
2023-05-15T19:13:31.365Z,13.19
2023-05-15T19:15:58.148Z,13.15
2023-05-15T19:18:24.908Z,13.33
2023-05-15T19:20:51.564Z,13.31
2023-05-15T19:23:18.574Z,13.41
2023-05-15T19:25:45.197Z,13.35
2023-05-15T19:28:11.854Z,13.35
2023-05-15T19:30:38.627Z,13.26
2023-05-15T19:33:05.450Z,13.07
2023-05-15T19:35:32.217Z,13.05
2023-05-15T19:38:02.186Z,13.09
2023-05-15T19:40:28.824Z,13.04
2023-05-15T19:42:55.722Z,13.06
2023-05-15T19:45:22.332Z,13.02
2023-05-15T19:47:50.301Z,12.95
2023-05-15T19:50:16.678Z,13.16
2023-05-15T19:52:44.734Z,13.00
2023-05-15T19:55:11.853Z,12.79
2023-05-15T19:57:38.591Z,12.82
2023-05-15T20:00:05.266Z,12.82
2023-05-15T20:02:31.657Z,12.75
2023-05-15T20:04:58.037Z,12.76
2023-05-15T20:07:24.455Z,12.84
2023-05-15T20:09:50.793Z,13.11
2023-05-15T20:12:17.155Z,13.07
2023-05-15T20:14:48.822Z,13.09
2023-05-15T20:17:15.469Z,13.18
2023-05-15T20:19:41.969Z,12.96
2023-05-15T20:22:08.374Z,12.82
2023-05-15T20:24:34.717Z,12.84
2023-05-15T20:27:01.054Z,12.74
2023-05-15T20:29:27.418Z,12.67
2023-05-15T20:31:53.804Z,12.41
2023-05-15T20:34:20.298Z,12.42
2023-05-15T20:36:46.627Z,12.41
2023-05-15T20:39:12.952Z,12.21
2023-05-15T20:41:39.321Z,12.15
2023-05-15T20:44:05.657Z,12.09
2023-05-15T20:46:32.147Z,12.00
2023-05-15T20:48:58.589Z,11.94
2023-05-15T20:51:24.940Z,12.05
2023-05-15T20:53:51.280Z,11.88
2023-05-15T20:56:17.601Z,11.93
2023-05-15T20:58:43.930Z,11.93
2023-05-15T21:01:10.316Z,12.12
2023-05-15T21:03:36.679Z,12.19
2023-05-15T21:06:03.054Z,12.21
2023-05-15T21:08:29.549Z,12.26
2023-05-15T21:10:55.900Z,12.28
2023-05-15T21:13:22.248Z,12.37
2023-05-15T21:15:48.601Z,12.25
2023-05-15T21:18:14.945Z,12.23
2023-05-15T21:20:41.345Z,12.21
2023-05-15T21:23:07.714Z,12.06
2023-05-15T21:25:34.061Z,12.07
2023-05-15T21:28:00.386Z,11.95
2023-05-15T21:30:27.336Z,11.80
2023-05-15T21:32:53.931Z,11.75
2023-05-15T21:35:20.332Z,11.66
2023-05-15T21:37:46.649Z,11.62
2023-05-15T21:40:13.115Z,11.78
2023-05-15T21:42:39.554Z,11.43
2023-05-15T21:45:07.048Z,11.36
2023-05-15T21:47:33.566Z,11.43
2023-05-15T21:49:59.916Z,11.51
2023-05-15T21:52:26.239Z,11.33
2023-05-15T21:54:52.589Z,11.17
2023-05-15T21:57:18.964Z,11.27
2023-05-15T21:59:45.302Z,11.29
2023-05-15T22:02:11.831Z,11.28
2023-05-15T22:04:38.274Z,11.18
2023-05-15T22:07:04.754Z,11.07
2023-05-15T22:09:31.232Z,10.92
2023-05-15T22:11:57.606Z,10.79
2023-05-15T22:14:23.942Z,10.84
2023-05-15T22:16:50.401Z,10.92
2023-05-15T22:19:29.024Z,10.85
2023-05-15T22:21:58.881Z,10.97
2023-05-15T22:24:25.225Z,10.95
2023-05-15T22:26:51.572Z,10.85
2023-05-15T22:29:17.916Z,10.92
2023-05-15T22:31:44.367Z,10.94
2023-05-15T22:34:10.780Z,10.85
2023-05-15T22:36:37.138Z,10.71
2023-05-15T22:39:03.774Z,10.98
2023-05-15T22:41:30.734Z,10.81
2023-05-15T22:43:57.056Z,10.69
2023-05-15T22:46:23.590Z,10.82
2023-05-15T22:48:51.174Z,10.82
2023-05-15T22:51:17.527Z,10.84
2023-05-15T22:53:44.922Z,10.79
2023-05-15T22:56:11.258Z,10.81
2023-05-15T22:58:37.746Z,10.79
2023-05-15T23:01:04.121Z,10.73
2023-05-15T23:03:30.629Z,10.53
2023-05-15T23:05:56.970Z,10.58
2023-05-15T23:08:23.312Z,10.40
2023-05-15T23:10:49.659Z,10.66
2023-05-15T23:13:16.001Z,10.50
2023-05-15T23:15:42.371Z,10.26
2023-05-15T23:18:08.802Z,10.27
2023-05-15T23:20:35.183Z,10.38
2023-05-15T23:23:01.535Z,10.28
2023-05-15T23:25:27.856Z,10.39
2023-05-15T23:27:54.240Z,10.22
2023-05-15T23:30:20.649Z,10.43
2023-05-15T23:32:47.066Z,10.33
2023-05-15T23:35:13.409Z,10.29
2023-05-15T23:37:39.775Z,10.45
2023-05-15T23:40:06.491Z,10.30
2023-05-15T23:42:32.858Z,10.29
2023-05-15T23:44:59.217Z,10.32
2023-05-15T23:47:25.626Z,10.25
2023-05-15T23:49:52.028Z,10.29
2023-05-15T23:52:18.392Z,10.25
2023-05-15T23:54:44.742Z,10.21
2023-05-15T23:57:11.072Z,10.25
2023-05-15T23:59:37.405Z,10.23
